sensor_id;sensor_type;location;lat;lon;timestamp;temperature;humidity
37642;DHT22;23486;51.956;5.888;2023-02-19T00:01:32;10.00;99.90
37642;DHT22;23486;51.956;5.888;2023-02-19T00:04:04;10.00;99.90
37642;DHT22;23486;51.956;5.888;2023-02-19T00:06:31;9.90;99.90
37642;DHT22;23486;51.956;5.888;2023-02-19T00:08:57;9.90;99.90
37642;DHT22;23486;51.956;5.888;2023-02-19T00:11:26;9.90;99.90
37642;DHT22;23486;51.956;5.888;2023-02-19T00:13:54;9.90;99.90
37642;DHT22;23486;51.956;5.888;2023-02-19T00:16:21;9.90;99.90
37642;DHT22;23486;51.956;5.888;2023-02-19T00:18:47;9.90;99.90
37642;DHT22;23486;51.956;5.888;2023-02-19T00:21:12;9.90;99.90
37642;DHT22;23486;51.956;5.888;2023-02-19T00:23:39;9.80;99.90
37642;DHT22;23486;51.956;5.888;2023-02-19T00:26:06;9.90;99.90
37642;DHT22;23486;51.956;5.888;2023-02-19T00:28:33;9.90;99.90
37642;DHT22;23486;51.956;5.888;2023-02-19T00:31:14;9.80;99.90
37642;DHT22;23486;51.956;5.888;2023-02-19T00:33:44;9.90;99.90
37642;DHT22;23486;51.956;5.888;2023-02-19T00:36:10;9.90;99.90
37642;DHT22;23486;51.956;5.888;2023-02-19T00:38:37;9.80;99.90
37642;DHT22;23486;51.956;5.888;2023-02-19T00:41:03;9.80;99.90
37642;DHT22;23486;51.956;5.888;2023-02-19T00:46:14;9.80;99.90
37642;DHT22;23486;51.956;5.888;2023-02-19T00:48:40;9.80;99.90
37642;DHT22;23486;51.956;5.888;2023-02-19T00:51:08;9.80;99.90
37642;DHT22;23486;51.956;5.888;2023-02-19T00:53:34;9.80;99.90
37642;DHT22;23486;51.956;5.888;2023-02-19T00:55:59;9.80;99.90
37642;DHT22;23486;51.956;5.888;2023-02-19T00:58:25;9.80;99.90
37642;DHT22;23486;51.956;5.888;2023-02-19T01:00:51;9.80;99.90
37642;DHT22;23486;51.956;5.888;2023-02-19T01:03:16;9.80;99.90
37642;DHT22;23486;51.956;5.888;2023-02-19T01:05:42;9.70;99.90
37642;DHT22;23486;51.956;5.888;2023-02-19T01:08:07;9.70;99.90
37642;DHT22;23486;51.956;5.888;2023-02-19T01:10:33;9.70;99.90
37642;DHT22;23486;51.956;5.888;2023-02-19T01:12:58;9.70;99.90
37642;DHT22;23486;51.956;5.888;2023-02-19T01:15:24;9.60;99.90
37642;DHT22;23486;51.956;5.888;2023-02-19T01:17:55;9.60;99.90
37642;DHT22;23486;51.956;5.888;2023-02-19T01:20:21;9.70;99.90
37642;DHT22;23486;51.956;5.888;2023-02-19T01:22:47;9.70;99.90
37642;DHT22;23486;51.956;5.888;2023-02-19T01:25:12;9.70;99.90
37642;DHT22;23486;51.956;5.888;2023-02-19T01:27:41;9.70;99.90
37642;DHT22;23486;51.956;5.888;2023-02-19T01:30:07;9.70;99.90
37642;DHT22;23486;51.956;5.888;2023-02-19T01:32:32;9.70;99.90
37642;DHT22;23486;51.956;5.888;2023-02-19T01:34:58;9.70;99.90
37642;DHT22;23486;51.956;5.888;2023-02-19T01:37:24;9.70;99.90
37642;DHT22;23486;51.956;5.888;2023-02-19T01:39:49;9.70;99.90
37642;DHT22;23486;51.956;5.888;2023-02-19T01:42:16;9.70;99.90
37642;DHT22;23486;51.956;5.888;2023-02-19T01:47:07;9.60;99.90
37642;DHT22;23486;51.956;5.888;2023-02-19T01:49:49;9.60;99.90
37642;DHT22;23486;51.956;5.888;2023-02-19T01:52:42;9.60;99.90
37642;DHT22;23486;51.956;5.888;2023-02-19T01:55:10;9.60;99.90
37642;DHT22;23486;51.956;5.888;2023-02-19T01:57:40;9.60;99.90
37642;DHT22;23486;51.956;5.888;2023-02-19T02:00:11;9.60;99.90
37642;DHT22;23486;51.956;5.888;2023-02-19T02:02:38;9.60;99.90
37642;DHT22;23486;51.956;5.888;2023-02-19T02:05:10;9.60;99.90
37642;DHT22;23486;51.956;5.888;2023-02-19T02:07:39;9.60;99.90
37642;DHT22;23486;51.956;5.888;2023-02-19T02:10:24;9.50;99.90
37642;DHT22;23486;51.956;5.888;2023-02-19T02:12:51;9.50;99.90
37642;DHT22;23486;51.956;5.888;2023-02-19T02:15:20;9.50;99.90
37642;DHT22;23486;51.956;5.888;2023-02-19T02:17:59;9.50;99.90
37642;DHT22;23486;51.956;5.888;2023-02-19T02:29:17;9.50;99.90
37642;DHT22;23486;51.956;5.888;2023-02-19T02:32:06;9.40;99.90
37642;DHT22;23486;51.956;5.888;2023-02-19T02:34:49;9.50;99.90
37642;DHT22;23486;51.956;5.888;2023-02-19T02:37:17;9.40;99.90
37642;DHT22;23486;51.956;5.888;2023-02-19T02:39:44;9.40;99.90
37642;DHT22;23486;51.956;5.888;2023-02-19T02:42:11;9.40;99.90
37642;DHT22;23486;51.956;5.888;2023-02-19T02:44:52;9.30;99.90
37642;DHT22;23486;51.956;5.888;2023-02-19T02:47:43;9.40;99.90
37642;DHT22;23486;51.956;5.888;2023-02-19T02:50:35;9.40;99.90
37642;DHT22;23486;51.956;5.888;2023-02-19T02:53:05;9.40;99.90
37642;DHT22;23486;51.956;5.888;2023-02-19T02:55:52;9.30;99.90
37642;DHT22;23486;51.956;5.888;2023-02-19T02:58:20;9.30;99.90
37642;DHT22;23486;51.956;5.888;2023-02-19T03:00:52;9.40;99.90
37642;DHT22;23486;51.956;5.888;2023-02-19T03:03:38;9.30;99.90
37642;DHT22;23486;51.956;5.888;2023-02-19T03:06:06;9.30;99.90
37642;DHT22;23486;51.956;5.888;2023-02-19T03:08:49;9.30;99.90
37642;DHT22;23486;51.956;5.888;2023-02-19T03:11:17;9.30;99.90
37642;DHT22;23486;51.956;5.888;2023-02-19T03:14:12;9.30;99.90
37642;DHT22;23486;51.956;5.888;2023-02-19T03:17:15;9.30;99.90
37642;DHT22;23486;51.956;5.888;2023-02-19T03:20:03;9.30;99.90
37642;DHT22;23486;51.956;5.888;2023-02-19T03:22:34;9.30;99.90
37642;DHT22;23486;51.956;5.888;2023-02-19T03:25:06;9.30;99.90
37642;DHT22;23486;51.956;5.888;2023-02-19T03:27:53;9.30;99.90
37642;DHT22;23486;51.956;5.888;2023-02-19T03:30:24;9.40;99.90
37642;DHT22;23486;51.956;5.888;2023-02-19T03:32:56;9.30;99.90
37642;DHT22;23486;51.956;5.888;2023-02-19T03:35:37;9.30;99.90
37642;DHT22;23486;51.956;5.888;2023-02-19T03:40:45;9.30;99.90
37642;DHT22;23486;51.956;5.888;2023-02-19T03:46:14;9.40;99.90
37642;DHT22;23486;51.956;5.888;2023-02-19T03:48:53;9.40;99.90
37642;DHT22;23486;51.956;5.888;2023-02-19T03:54:04;9.30;99.90
37642;DHT22;23486;51.956;5.888;2023-02-19T03:59:18;9.30;99.90
37642;DHT22;23486;51.956;5.888;2023-02-19T04:01:46;9.40;99.90
37642;DHT22;23486;51.956;5.888;2023-02-19T04:04:35;9.40;99.90
37642;DHT22;23486;51.956;5.888;2023-02-19T04:07:04;9.40;99.90
37642;DHT22;23486;51.956;5.888;2023-02-19T04:09:40;9.40;99.90
37642;DHT22;23486;51.956;5.888;2023-02-19T04:12:10;9.40;99.90
37642;DHT22;23486;51.956;5.888;2023-02-19T04:14:56;9.40;99.90
37642;DHT22;23486;51.956;5.888;2023-02-19T04:17:50;9.30;99.90
37642;DHT22;23486;51.956;5.888;2023-02-19T04:20:18;9.40;99.90
37642;DHT22;23486;51.956;5.888;2023-02-19T04:22:44;9.40;99.90
37642;DHT22;23486;51.956;5.888;2023-02-19T04:25:10;9.40;99.90
37642;DHT22;23486;51.956;5.888;2023-02-19T04:27:38;9.40;99.90
37642;DHT22;23486;51.956;5.888;2023-02-19T04:30:06;9.30;99.90
37642;DHT22;23486;51.956;5.888;2023-02-19T04:32:32;9.30;99.90
37642;DHT22;23486;51.956;5.888;2023-02-19T04:34:57;9.30;99.90
37642;DHT22;23486;51.956;5.888;2023-02-19T04:37:23;9.30;99.90
37642;DHT22;23486;51.956;5.888;2023-02-19T04:39:51;9.30;99.90
37642;DHT22;23486;51.956;5.888;2023-02-19T04:42:17;9.30;99.90
37642;DHT22;23486;51.956;5.888;2023-02-19T04:44:42;9.30;99.90
37642;DHT22;23486;51.956;5.888;2023-02-19T04:47:08;9.20;99.90
37642;DHT22;23486;51.956;5.888;2023-02-19T04:49:33;9.30;99.90
37642;DHT22;23486;51.956;5.888;2023-02-19T04:51:59;9.30;99.90
37642;DHT22;23486;51.956;5.888;2023-02-19T04:54:25;9.20;99.90
37642;DHT22;23486;51.956;5.888;2023-02-19T04:56:50;9.30;99.90
37642;DHT22;23486;51.956;5.888;2023-02-19T04:59:16;9.20;99.90
37642;DHT22;23486;51.956;5.888;2023-02-19T05:01:41;9.20;99.90
37642;DHT22;23486;51.956;5.888;2023-02-19T05:04:07;9.20;99.90
37642;DHT22;23486;51.956;5.888;2023-02-19T05:06:33;9.20;99.90
37642;DHT22;23486;51.956;5.888;2023-02-19T05:08:58;9.20;99.90
37642;DHT22;23486;51.956;5.888;2023-02-19T05:11:24;9.20;99.90
37642;DHT22;23486;51.956;5.888;2023-02-19T05:13:49;9.20;99.90
37642;DHT22;23486;51.956;5.888;2023-02-19T05:16:15;9.30;99.90
37642;DHT22;23486;51.956;5.888;2023-02-19T05:18:43;9.20;99.90
37642;DHT22;23486;51.956;5.888;2023-02-19T05:21:09;9.20;99.90
37642;DHT22;23486;51.956;5.888;2023-02-19T05:23:35;9.20;99.90
37642;DHT22;23486;51.956;5.888;2023-02-19T05:26:12;9.20;99.90
37642;DHT22;23486;51.956;5.888;2023-02-19T05:28:41;9.20;99.90
37642;DHT22;23486;51.956;5.888;2023-02-19T05:31:08;9.20;99.90
37642;DHT22;23486;51.956;5.888;2023-02-19T05:33:34;9.20;99.90
37642;DHT22;23486;51.956;5.888;2023-02-19T05:36:07;9.20;99.90
37642;DHT22;23486;51.956;5.888;2023-02-19T05:38:33;9.20;99.90
37642;DHT22;23486;51.956;5.888;2023-02-19T05:41:10;9.20;99.90
37642;DHT22;23486;51.956;5.888;2023-02-19T05:43:37;9.20;99.90
37642;DHT22;23486;51.956;5.888;2023-02-19T05:46:03;9.20;99.90
37642;DHT22;23486;51.956;5.888;2023-02-19T05:48:29;9.20;99.90
37642;DHT22;23486;51.956;5.888;2023-02-19T05:51:03;9.20;99.90
37642;DHT22;23486;51.956;5.888;2023-02-19T05:53:29;9.20;99.90
37642;DHT22;23486;51.956;5.888;2023-02-19T05:55:55;9.20;99.90
37642;DHT22;23486;51.956;5.888;2023-02-19T05:58:20;9.20;99.90
37642;DHT22;23486;51.956;5.888;2023-02-19T06:00:46;9.20;99.90
37642;DHT22;23486;51.956;5.888;2023-02-19T06:03:11;9.20;99.90
37642;DHT22;23486;51.956;5.888;2023-02-19T06:05:37;9.20;99.90
37642;DHT22;23486;51.956;5.888;2023-02-19T06:08:03;9.20;99.90
37642;DHT22;23486;51.956;5.888;2023-02-19T06:10:28;9.20;99.90
37642;DHT22;23486;51.956;5.888;2023-02-19T06:12:54;9.20;99.90
37642;DHT22;23486;51.956;5.888;2023-02-19T06:15:20;9.20;99.90
37642;DHT22;23486;51.956;5.888;2023-02-19T06:17:46;9.20;99.90
37642;DHT22;23486;51.956;5.888;2023-02-19T06:20:12;9.20;99.90
37642;DHT22;23486;51.956;5.888;2023-02-19T06:22:37;9.20;99.90
37642;DHT22;23486;51.956;5.888;2023-02-19T06:25:03;9.20;99.90
37642;DHT22;23486;51.956;5.888;2023-02-19T06:27:30;9.10;99.90
37642;DHT22;23486;51.956;5.888;2023-02-19T06:29:55;9.10;99.90
37642;DHT22;23486;51.956;5.888;2023-02-19T06:32:21;9.10;99.90
37642;DHT22;23486;51.956;5.888;2023-02-19T06:34:47;9.10;99.90
37642;DHT22;23486;51.956;5.888;2023-02-19T06:37:13;9.00;99.90
37642;DHT22;23486;51.956;5.888;2023-02-19T06:39:38;9.00;99.90
37642;DHT22;23486;51.956;5.888;2023-02-19T06:42:04;9.00;99.90
37642;DHT22;23486;51.956;5.888;2023-02-19T06:44:29;9.10;99.90
37642;DHT22;23486;51.956;5.888;2023-02-19T06:46:55;9.00;99.90
37642;DHT22;23486;51.956;5.888;2023-02-19T06:49:21;9.00;99.90
37642;DHT22;23486;51.956;5.888;2023-02-19T06:51:47;9.00;99.90
37642;DHT22;23486;51.956;5.888;2023-02-19T06:54:12;9.00;99.90
37642;DHT22;23486;51.956;5.888;2023-02-19T06:56:39;9.00;99.90
37642;DHT22;23486;51.956;5.888;2023-02-19T06:59:08;9.00;99.90
37642;DHT22;23486;51.956;5.888;2023-02-19T07:01:35;9.00;99.90
37642;DHT22;23486;51.956;5.888;2023-02-19T07:04:01;9.00;99.90
37642;DHT22;23486;51.956;5.888;2023-02-19T07:06:27;9.00;99.90
37642;DHT22;23486;51.956;5.888;2023-02-19T07:08:55;9.00;99.90
37642;DHT22;23486;51.956;5.888;2023-02-19T07:11:21;9.00;99.90
37642;DHT22;23486;51.956;5.888;2023-02-19T07:13:46;9.00;99.90
37642;DHT22;23486;51.956;5.888;2023-02-19T07:16:13;9.00;99.90
37642;DHT22;23486;51.956;5.888;2023-02-19T07:18:39;9.00;99.90
37642;DHT22;23486;51.956;5.888;2023-02-19T07:21:09;9.00;99.90
37642;DHT22;23486;51.956;5.888;2023-02-19T07:23:35;9.00;99.90
37642;DHT22;23486;51.956;5.888;2023-02-19T07:26:01;9.00;99.90
37642;DHT22;23486;51.956;5.888;2023-02-19T07:28:27;9.00;99.90
37642;DHT22;23486;51.956;5.888;2023-02-19T07:30:53;9.00;99.90
37642;DHT22;23486;51.956;5.888;2023-02-19T07:33:24;9.00;99.90
37642;DHT22;23486;51.956;5.888;2023-02-19T07:35:50;9.00;99.90
37642;DHT22;23486;51.956;5.888;2023-02-19T07:38:19;9.00;99.90
37642;DHT22;23486;51.956;5.888;2023-02-19T07:40:53;9.00;99.90
37642;DHT22;23486;51.956;5.888;2023-02-19T07:43:19;9.00;99.90
37642;DHT22;23486;51.956;5.888;2023-02-19T07:45:45;9.00;99.90
37642;DHT22;23486;51.956;5.888;2023-02-19T07:48:11;9.00;99.90
37642;DHT22;23486;51.956;5.888;2023-02-19T07:50:37;9.00;99.90
37642;DHT22;23486;51.956;5.888;2023-02-19T07:53:02;9.00;99.90
37642;DHT22;23486;51.956;5.888;2023-02-19T07:55:28;9.00;99.90
37642;DHT22;23486;51.956;5.888;2023-02-19T07:57:57;9.00;99.90
37642;DHT22;23486;51.956;5.888;2023-02-19T08:00:22;9.00;99.90
37642;DHT22;23486;51.956;5.888;2023-02-19T08:02:48;9.10;99.90
37642;DHT22;23486;51.956;5.888;2023-02-19T08:05:31;9.10;99.90
37642;DHT22;23486;51.956;5.888;2023-02-19T08:07:58;9.00;99.90
37642;DHT22;23486;51.956;5.888;2023-02-19T08:10:24;9.10;99.90
37642;DHT22;23486;51.956;5.888;2023-02-19T08:13:14;9.10;99.90
37642;DHT22;23486;51.956;5.888;2023-02-19T08:18:29;9.20;99.90
37642;DHT22;23486;51.956;5.888;2023-02-19T08:20:56;9.20;99.90
37642;DHT22;23486;51.956;5.888;2023-02-19T08:23:22;9.30;99.90
37642;DHT22;23486;51.956;5.888;2023-02-19T08:25:49;9.30;99.90
37642;DHT22;23486;51.956;5.888;2023-02-19T08:28:15;9.30;99.90
37642;DHT22;23486;51.956;5.888;2023-02-19T08:30:42;9.30;99.90
37642;DHT22;23486;51.956;5.888;2023-02-19T08:33:13;9.30;99.90
37642;DHT22;23486;51.956;5.888;2023-02-19T08:35:39;9.30;99.90
37642;DHT22;23486;51.956;5.888;2023-02-19T08:38:06;9.30;99.90
37642;DHT22;23486;51.956;5.888;2023-02-19T08:40:32;9.30;99.90
37642;DHT22;23486;51.956;5.888;2023-02-19T08:43:03;9.40;99.90
37642;DHT22;23486;51.956;5.888;2023-02-19T08:45:36;9.40;99.90
37642;DHT22;23486;51.956;5.888;2023-02-19T08:48:02;9.40;99.90
37642;DHT22;23486;51.956;5.888;2023-02-19T08:50:27;9.40;99.90
37642;DHT22;23486;51.956;5.888;2023-02-19T08:52:53;9.40;99.90
37642;DHT22;23486;51.956;5.888;2023-02-19T08:55:19;9.40;99.90
37642;DHT22;23486;51.956;5.888;2023-02-19T08:57:44;9.40;99.90
37642;DHT22;23486;51.956;5.888;2023-02-19T09:00:11;9.50;99.90
37642;DHT22;23486;51.956;5.888;2023-02-19T09:02:37;9.50;99.90
37642;DHT22;23486;51.956;5.888;2023-02-19T09:05:03;9.60;99.90
37642;DHT22;23486;51.956;5.888;2023-02-19T09:07:30;9.60;99.90
37642;DHT22;23486;51.956;5.888;2023-02-19T09:09:56;9.60;99.90
37642;DHT22;23486;51.956;5.888;2023-02-19T09:12:21;9.60;99.90
37642;DHT22;23486;51.956;5.888;2023-02-19T09:14:47;9.60;99.90
37642;DHT22;23486;51.956;5.888;2023-02-19T09:17:13;9.70;99.90
37642;DHT22;23486;51.956;5.888;2023-02-19T09:19:42;9.70;99.90
37642;DHT22;23486;51.956;5.888;2023-02-19T09:22:08;9.70;99.90
37642;DHT22;23486;51.956;5.888;2023-02-19T09:24:33;9.70;99.90
37642;DHT22;23486;51.956;5.888;2023-02-19T09:26:59;9.70;99.90
37642;DHT22;23486;51.956;5.888;2023-02-19T09:29:28;9.70;99.90
37642;DHT22;23486;51.956;5.888;2023-02-19T09:31:59;9.60;99.90
37642;DHT22;23486;51.956;5.888;2023-02-19T09:34:26;9.60;99.90
37642;DHT22;23486;51.956;5.888;2023-02-19T09:36:53;9.60;99.90
37642;DHT22;23486;51.956;5.888;2023-02-19T09:39:18;9.50;99.90
37642;DHT22;23486;51.956;5.888;2023-02-19T09:41:59;9.60;99.90
37642;DHT22;23486;51.956;5.888;2023-02-19T09:44:38;9.70;99.90
37642;DHT22;23486;51.956;5.888;2023-02-19T09:47:16;9.80;99.90
37642;DHT22;23486;51.956;5.888;2023-02-19T09:49:44;9.80;99.90
37642;DHT22;23486;51.956;5.888;2023-02-19T09:52:27;9.70;99.90
37642;DHT22;23486;51.956;5.888;2023-02-19T09:55:08;9.70;99.90
37642;DHT22;23486;51.956;5.888;2023-02-19T09:57:37;9.70;99.90
37642;DHT22;23486;51.956;5.888;2023-02-19T10:00:24;9.70;99.90
37642;DHT22;23486;51.956;5.888;2023-02-19T10:03:04;9.70;99.90
37642;DHT22;23486;51.956;5.888;2023-02-19T10:05:33;9.90;99.90
37642;DHT22;23486;51.956;5.888;2023-02-19T10:07:59;9.90;99.90
37642;DHT22;23486;51.956;5.888;2023-02-19T10:10:34;10.00;99.90
37642;DHT22;23486;51.956;5.888;2023-02-19T10:15:49;10.20;99.90
37642;DHT22;23486;51.956;5.888;2023-02-19T10:18:17;10.10;99.90
37642;DHT22;23486;51.956;5.888;2023-02-19T10:20:44;10.20;99.90
37642;DHT22;23486;51.956;5.888;2023-02-19T10:23:11;10.20;99.90
37642;DHT22;23486;51.956;5.888;2023-02-19T10:25:42;10.20;99.90
37642;DHT22;23486;51.956;5.888;2023-02-19T10:28:13;10.00;99.90
37642;DHT22;23486;51.956;5.888;2023-02-19T10:30:40;10.10;99.90
37642;DHT22;23486;51.956;5.888;2023-02-19T10:33:14;10.10;99.90
37642;DHT22;23486;51.956;5.888;2023-02-19T10:38:20;10.10;99.90
37642;DHT22;23486;51.956;5.888;2023-02-19T10:40:55;10.10;99.90
37642;DHT22;23486;51.956;5.888;2023-02-19T10:43:25;10.10;99.90
37642;DHT22;23486;51.956;5.888;2023-02-19T10:45:57;10.10;99.90
37642;DHT22;23486;51.956;5.888;2023-02-19T10:48:27;10.10;99.90
37642;DHT22;23486;51.956;5.888;2023-02-19T10:50:54;10.00;99.90
37642;DHT22;23486;51.956;5.888;2023-02-19T10:53:23;10.00;99.90
37642;DHT22;23486;51.956;5.888;2023-02-19T10:56:07;10.00;99.90
37642;DHT22;23486;51.956;5.888;2023-02-19T10:58:36;10.00;99.90
37642;DHT22;23486;51.956;5.888;2023-02-19T11:03:48;10.00;99.90
37642;DHT22;23486;51.956;5.888;2023-02-19T11:06:19;10.00;99.90
37642;DHT22;23486;51.956;5.888;2023-02-19T11:11:37;10.00;99.90
37642;DHT22;23486;51.956;5.888;2023-02-19T11:14:17;10.00;99.90
37642;DHT22;23486;51.956;5.888;2023-02-19T11:16:48;10.00;99.90
37642;DHT22;23486;51.956;5.888;2023-02-19T11:19:27;10.00;99.90
37642;DHT22;23486;51.956;5.888;2023-02-19T11:21:54;10.00;99.90
37642;DHT22;23486;51.956;5.888;2023-02-19T11:26:56;10.10;99.90
37642;DHT22;23486;51.956;5.888;2023-02-19T11:29:26;10.20;99.90
37642;DHT22;23486;51.956;5.888;2023-02-19T11:31:54;10.20;99.90
37642;DHT22;23486;51.956;5.888;2023-02-19T11:37:07;10.20;99.90
37642;DHT22;23486;51.956;5.888;2023-02-19T11:39:33;10.20;99.90
37642;DHT22;23486;51.956;5.888;2023-02-19T11:50:21;10.40;99.90
37642;DHT22;23486;51.956;5.888;2023-02-19T12:06:43;10.20;99.90
37642;DHT22;23486;51.956;5.888;2023-02-19T12:26:27;10.00;99.90
37642;DHT22;23486;51.956;5.888;2023-02-19T12:29:11;9.80;99.90
37642;DHT22;23486;51.956;5.888;2023-02-19T12:37:19;9.80;99.90
37642;DHT22;23486;51.956;5.888;2023-02-19T12:45:21;9.80;99.90
37642;DHT22;23486;51.956;5.888;2023-02-19T12:50:44;9.80;99.90
37642;DHT22;23486;51.956;5.888;2023-02-19T12:55:48;9.80;99.90
37642;DHT22;23486;51.956;5.888;2023-02-19T12:58:45;9.80;99.90
37642;DHT22;23486;51.956;5.888;2023-02-19T13:01:22;9.90;99.90
37642;DHT22;23486;51.956;5.888;2023-02-19T13:07:08;9.70;99.90
37642;DHT22;23486;51.956;5.888;2023-02-19T13:09:40;9.70;99.90
37642;DHT22;23486;51.956;5.888;2023-02-19T13:12:16;9.70;99.90
37642;DHT22;23486;51.956;5.888;2023-02-19T13:14:56;9.70;99.90
37642;DHT22;23486;51.956;5.888;2023-02-19T13:17:39;9.80;99.90
37642;DHT22;23486;51.956;5.888;2023-02-19T13:20:31;9.80;99.90
37642;DHT22;23486;51.956;5.888;2023-02-19T13:23:08;9.70;99.90
37642;DHT22;23486;51.956;5.888;2023-02-19T13:37:13;9.90;99.90
37642;DHT22;23486;51.956;5.888;2023-02-19T13:39:51;10.00;99.90
37642;DHT22;23486;51.956;5.888;2023-02-19T13:42:31;10.00;99.90
37642;DHT22;23486;51.956;5.888;2023-02-19T13:44:58;10.00;99.90
37642;DHT22;23486;51.956;5.888;2023-02-19T13:50:30;10.00;99.90
37642;DHT22;23486;51.956;5.888;2023-02-19T13:52:59;9.80;99.90
37642;DHT22;23486;51.956;5.888;2023-02-19T13:55:46;9.60;99.90
37642;DHT22;23486;51.956;5.888;2023-02-19T14:01:08;9.40;99.90
37642;DHT22;23486;51.956;5.888;2023-02-19T14:06:12;9.20;99.90
37642;DHT22;23486;51.956;5.888;2023-02-19T14:14:26;9.00;99.90
37642;DHT22;23486;51.956;5.888;2023-02-19T14:30:55;8.90;99.90
37642;DHT22;23486;51.956;5.888;2023-02-19T14:33:26;8.80;99.90
37642;DHT22;23486;51.956;5.888;2023-02-19T14:35:58;8.70;99.90
37642;DHT22;23486;51.956;5.888;2023-02-19T14:38:30;8.70;99.90
37642;DHT22;23486;51.956;5.888;2023-02-19T14:40:58;8.60;99.90
37642;DHT22;23486;51.956;5.888;2023-02-19T14:43:25;8.50;99.90
37642;DHT22;23486;51.956;5.888;2023-02-19T14:46:28;8.50;99.90
37642;DHT22;23486;51.956;5.888;2023-02-19T14:48:48;8.40;99.90
37642;DHT22;23486;51.956;5.888;2023-02-19T14:51:35;8.40;99.90
37642;DHT22;23486;51.956;5.888;2023-02-19T14:54:11;8.40;99.90
37642;DHT22;23486;51.956;5.888;2023-02-19T14:56:39;8.30;99.90
37642;DHT22;23486;51.956;5.888;2023-02-19T15:01:36;8.30;99.90
37642;DHT22;23486;51.956;5.888;2023-02-19T15:04:03;8.30;99.90
37642;DHT22;23486;51.956;5.888;2023-02-19T15:06:30;8.20;99.90
37642;DHT22;23486;51.956;5.888;2023-02-19T15:09:03;8.20;99.90
37642;DHT22;23486;51.956;5.888;2023-02-19T15:11:30;8.20;99.90
37642;DHT22;23486;51.956;5.888;2023-02-19T15:13:59;8.20;99.90
37642;DHT22;23486;51.956;5.888;2023-02-19T15:16:28;8.20;99.90
37642;DHT22;23486;51.956;5.888;2023-02-19T15:18:55;8.10;99.90
37642;DHT22;23486;51.956;5.888;2023-02-19T15:21:30;8.10;99.90
37642;DHT22;23486;51.956;5.888;2023-02-19T15:24:00;8.10;99.90
37642;DHT22;23486;51.956;5.888;2023-02-19T15:26:32;8.20;99.90
37642;DHT22;23486;51.956;5.888;2023-02-19T15:29:01;8.10;99.90
37642;DHT22;23486;51.956;5.888;2023-02-19T15:31:28;8.10;99.90
37642;DHT22;23486;51.956;5.888;2023-02-19T15:33:53;8.10;99.90
37642;DHT22;23486;51.956;5.888;2023-02-19T15:36:28;8.10;99.90
37642;DHT22;23486;51.956;5.888;2023-02-19T15:38:57;8.10;99.90
37642;DHT22;23486;51.956;5.888;2023-02-19T15:41:26;8.10;99.90
37642;DHT22;23486;51.956;5.888;2023-02-19T15:46:34;8.20;99.90
37642;DHT22;23486;51.956;5.888;2023-02-19T15:49:22;8.10;99.90
37642;DHT22;23486;51.956;5.888;2023-02-19T15:51:56;8.20;99.90
37642;DHT22;23486;51.956;5.888;2023-02-19T15:54:33;8.20;99.90
37642;DHT22;23486;51.956;5.888;2023-02-19T15:57:05;8.20;99.90
37642;DHT22;23486;51.956;5.888;2023-02-19T15:59:42;8.20;99.90
37642;DHT22;23486;51.956;5.888;2023-02-19T16:02:12;8.10;99.90
37642;DHT22;23486;51.956;5.888;2023-02-19T16:04:43;8.20;99.90
37642;DHT22;23486;51.956;5.888;2023-02-19T16:07:23;8.10;99.90
37642;DHT22;23486;51.956;5.888;2023-02-19T16:10:21;8.20;99.90
37642;DHT22;23486;51.956;5.888;2023-02-19T16:13:00;8.20;99.90
37642;DHT22;23486;51.956;5.888;2023-02-19T16:15:28;8.20;99.90
37642;DHT22;23486;51.956;5.888;2023-02-19T16:17:55;8.20;99.90
37642;DHT22;23486;51.956;5.888;2023-02-19T16:20:27;8.20;99.90
37642;DHT22;23486;51.956;5.888;2023-02-19T16:23:11;8.20;99.90
37642;DHT22;23486;51.956;5.888;2023-02-19T16:25:42;8.10;99.90
37642;DHT22;23486;51.956;5.888;2023-02-19T16:28:12;8.20;99.90
37642;DHT22;23486;51.956;5.888;2023-02-19T16:30:38;8.10;99.90
37642;DHT22;23486;51.956;5.888;2023-02-19T16:33:32;8.10;99.90
37642;DHT22;23486;51.956;5.888;2023-02-19T16:46:51;8.10;99.90
37642;DHT22;23486;51.956;5.888;2023-02-19T16:49:17;8.10;99.90
37642;DHT22;23486;51.956;5.888;2023-02-19T16:51:44;8.10;99.90
37642;DHT22;23486;51.956;5.888;2023-02-19T16:54:11;8.10;99.90
37642;DHT22;23486;51.956;5.888;2023-02-19T16:56:37;8.10;99.90
37642;DHT22;23486;51.956;5.888;2023-02-19T16:59:02;8.00;99.90
37642;DHT22;23486;51.956;5.888;2023-02-19T17:01:29;8.00;99.90
37642;DHT22;23486;51.956;5.888;2023-02-19T17:03:58;8.00;99.90
37642;DHT22;23486;51.956;5.888;2023-02-19T17:06:25;8.00;99.90
37642;DHT22;23486;51.956;5.888;2023-02-19T17:08:52;8.10;99.90
37642;DHT22;23486;51.956;5.888;2023-02-19T17:11:17;8.00;99.90
37642;DHT22;23486;51.956;5.888;2023-02-19T17:13:43;8.00;99.90
37642;DHT22;23486;51.956;5.888;2023-02-19T17:16:31;8.00;99.90
37642;DHT22;23486;51.956;5.888;2023-02-19T17:19:14;8.00;99.90
37642;DHT22;23486;51.956;5.888;2023-02-19T17:21:40;8.00;99.90
37642;DHT22;23486;51.956;5.888;2023-02-19T17:24:06;8.00;99.90
37642;DHT22;23486;51.956;5.888;2023-02-19T17:26:32;8.00;99.90
37642;DHT22;23486;51.956;5.888;2023-02-19T17:29:18;7.90;99.90
37642;DHT22;23486;51.956;5.888;2023-02-19T17:31:44;7.90;99.90
37642;DHT22;23486;51.956;5.888;2023-02-19T17:34:10;7.90;99.90
37642;DHT22;23486;51.956;5.888;2023-02-19T17:36:38;7.90;99.90
37642;DHT22;23486;51.956;5.888;2023-02-19T17:39:11;7.90;99.90
37642;DHT22;23486;51.956;5.888;2023-02-19T17:41:39;7.90;99.90
37642;DHT22;23486;51.956;5.888;2023-02-19T17:44:04;7.80;99.90
37642;DHT22;23486;51.956;5.888;2023-02-19T17:46:30;7.80;99.90
37642;DHT22;23486;51.956;5.888;2023-02-19T17:48:57;7.80;99.90
37642;DHT22;23486;51.956;5.888;2023-02-19T17:51:22;7.90;99.90
37642;DHT22;23486;51.956;5.888;2023-02-19T17:53:54;7.90;99.90
37642;DHT22;23486;51.956;5.888;2023-02-19T17:56:23;7.90;99.90
37642;DHT22;23486;51.956;5.888;2023-02-19T17:58:49;7.80;99.90
37642;DHT22;23486;51.956;5.888;2023-02-19T18:01:15;7.80;99.90
37642;DHT22;23486;51.956;5.888;2023-02-19T18:03:41;7.80;99.90
37642;DHT22;23486;51.956;5.888;2023-02-19T18:06:07;7.80;99.90
37642;DHT22;23486;51.956;5.888;2023-02-19T18:08:36;7.80;99.90
37642;DHT22;23486;51.956;5.888;2023-02-19T18:11:02;7.80;99.90
37642;DHT22;23486;51.956;5.888;2023-02-19T18:13:28;7.70;99.90
37642;DHT22;23486;51.956;5.888;2023-02-19T18:15:53;7.70;99.90
37642;DHT22;23486;51.956;5.888;2023-02-19T18:18:20;7.70;99.90
37642;DHT22;23486;51.956;5.888;2023-02-19T18:20:56;7.70;99.90
37642;DHT22;23486;51.956;5.888;2023-02-19T18:23:22;7.70;99.90
37642;DHT22;23486;51.956;5.888;2023-02-19T18:25:47;7.70;99.90
37642;DHT22;23486;51.956;5.888;2023-02-19T18:28:13;7.70;99.90
37642;DHT22;23486;51.956;5.888;2023-02-19T18:30:39;7.70;99.90
37642;DHT22;23486;51.956;5.888;2023-02-19T18:33:05;7.60;99.90
37642;DHT22;23486;51.956;5.888;2023-02-19T18:35:30;7.60;99.90
37642;DHT22;23486;51.956;5.888;2023-02-19T18:37:56;7.60;99.90
37642;DHT22;23486;51.956;5.888;2023-02-19T18:40:22;7.50;99.90
37642;DHT22;23486;51.956;5.888;2023-02-19T18:42:51;7.60;99.90